CheckWX is a tool to help pilots better visualize weather data.  It is not intended as a substitute for an official pre-flight weather briefing.

10:24:04 UTC

LOWW METAR
Vienna International Airport
Vienna, Austria
Current

34 mins ago

LOWW 230950Z 34013KT 310V020 CAVOK 28/14 Q1021 NOSIG
Observed
Jul-23 @ 09:50 UTC
Wind
  • 340° at 13 KTS
Visibility
10,000+ meters
Flight Rules
VFR
Cloud Levels
  • Clear skies
Temperature
28°C / 82°F
Dewpoint
14°C / 57°F
Heat Index
28°C / 82°F
Humidity
42%
Altimeter
30.15" Hg
Pressure
1020.92 hPa
Previous

1 hour ago

LOWW 230920Z 31013KT CAVOK 28/14 Q1021 NOSIG
Observed
Jul-23 @ 09:20 UTC
Wind
  • 310° at 13 KTS
Visibility
10,000+ meters
Flight Rules
VFR
Cloud Levels
  • Clear skies
Temperature
28°C / 82°F
Dewpoint
14°C / 57°F
Heat Index
28°C / 82°F
Humidity
42%
Altimeter
30.15" Hg
Pressure
1020.92 hPa
Previous

2 hours ago

LOWW 230850Z 31012KT CAVOK 28/14 Q1021 NOSIG
Observed
Jul-23 @ 08:50 UTC
Wind
  • 310° at 12 KTS
Visibility
10,000+ meters
Flight Rules
VFR
Cloud Levels
  • Clear skies
Temperature
28°C / 82°F
Dewpoint
14°C / 57°F
Heat Index
28°C / 82°F
Humidity
42%
Altimeter
30.15" Hg
Pressure
1020.92 hPa